Time;durP1;ratioP1;P1;durP2;ratioP2;P2;SDS_P1;SDS_P2;PMS_P1;PMS_P2;Temp;Humidity;BMP_temperature;BMP_pressure;BME280_temperature;BME280_humidity;BME280_pressure;Samples;Min_cycle;Max_cycle;Signal;HPM_P1;HPM_P2
2021/08/04 00:05:53;;;;;;;5.93;2.83;;;15.00;99.90;;;;;;5110119;28;20172;-66
2021/08/04 00:08:40;;;;;;;5.47;2.93;;;15.00;99.90;;;;;;5109945;28;20222;-66
2021/08/04 00:11:28;;;;;;;8.53;2.80;;;15.10;99.90;;;;;;5120114;28;20209;-66
2021/08/04 00:14:16;;;;;;;6.43;2.77;;;15.10;99.90;;;;;;5124975;28;20676;-66
2021/08/04 00:17:04;;;;;;;3.87;2.80;;;15.00;99.90;;;;;;5117345;28;20205;-66
2021/08/04 00:19:51;;;;;;;7.17;2.40;;;15.00;99.90;;;;;;5112068;28;20238;-67
2021/08/04 00:22:40;;;;;;;7.67;2.83;;;15.10;99.90;;;;;;5107959;28;20193;-66
2021/08/04 00:25:28;;;;;;;4.27;2.47;;;15.00;99.90;;;;;;5115517;28;20705;-67
2021/08/04 00:28:15;;;;;;;4.73;2.73;;;15.10;99.90;;;;;;5120213;28;20602;-66
2021/08/04 00:31:03;;;;;;;6.87;2.90;;;15.00;99.90;;;;;;5122289;27;20210;-66
2021/08/04 00:33:51;;;;;;;4.43;2.87;;;15.00;99.90;;;;;;5116164;27;20211;-66
2021/08/04 00:36:38;;;;;;;4.60;2.70;;;15.00;99.90;;;;;;5119444;27;20236;-67
2021/08/04 00:39:27;;;;;;;5.57;2.70;;;15.10;99.90;;;;;;5126314;27;20206;-66
2021/08/04 00:42:17;;;;;;;7.10;2.80;;;15.10;99.90;;;;;;5125437;27;20209;-66
2021/08/04 00:45:07;;;;;;;8.10;2.90;;;15.20;99.90;;;;;;5122461;27;20203;-66
2021/08/04 00:47:55;;;;;;;7.47;2.80;;;15.20;99.90;;;;;;5124988;27;20246;-67
2021/08/04 00:50:42;;;;;;;6.33;2.50;;;15.20;99.90;;;;;;5106778;27;20276;-66
2021/08/04 00:53:30;;;;;;;6.13;1.93;;;15.30;99.90;;;;;;5117098;27;20202;-67
2021/08/04 00:56:19;;;;;;;4.00;2.13;;;15.20;99.90;;;;;;5121071;27;20204;-66
2021/08/04 00:59:06;;;;;;;8.00;2.80;;;15.20;99.90;;;;;;5121063;27;20193;-67
2021/08/04 01:01:57;;;;;;;7.13;2.73;;;15.20;99.90;;;;;;5121742;27;20239;-67
2021/08/04 01:04:47;;;;;;;8.17;2.60;;;15.20;99.90;;;;;;5120113;27;20202;-67
2021/08/04 01:07:36;;;;;;;8.10;2.80;;;15.30;99.90;;;;;;5118312;27;20215;-66
2021/08/04 01:10:26;;;;;;;8.23;2.80;;;15.30;99.90;;;;;;5108387;27;20207;-67
2021/08/04 01:13:20;;;;;;;2.87;2.20;;;15.30;99.90;;;;;;5115942;27;20205;-67
2021/08/04 01:16:12;;;;;;;3.70;2.50;;;15.10;99.90;;;;;;5105805;28;20195;-67
2021/08/04 01:19:02;;;;;;;4.50;2.57;;;15.10;99.90;;;;;;5115701;27;20192;-67
2021/08/04 01:21:53;;;;;;;5.60;2.53;;;15.30;99.90;;;;;;5117995;27;20195;-67
2021/08/04 01:24:46;;;;;;;4.83;2.47;;;15.30;99.90;;;;;;5123558;27;20292;-66
2021/08/04 01:27:35;;;;;;;7.23;2.90;;;15.40;99.90;;;;;;5122107;27;20581;-67
2021/08/04 01:30:22;;;;;;;6.23;2.70;;;15.40;99.90;;;;;;5118567;27;20218;-67
2021/08/04 01:33:10;;;;;;;5.90;2.33;;;15.40;99.90;;;;;;5119713;27;20280;-67
2021/08/04 01:35:58;;;;;;;5.00;2.40;;;15.50;99.90;;;;;;5116025;27;20203;-67
2021/08/04 01:38:45;;;;;;;6.17;3.17;;;15.50;99.90;;;;;;5124895;27;20568;-67
2021/08/04 01:41:34;;;;;;;5.57;3.10;;;15.50;99.90;;;;;;5121252;27;20735;-66
2021/08/04 01:44:23;;;;;;;5.07;2.90;;;15.50;99.90;;;;;;5128478;27;20206;-66
2021/08/04 01:47:11;;;;;;;7.30;2.83;;;15.50;99.90;;;;;;5117720;27;20225;-66
2021/08/04 01:49:58;;;;;;;6.57;2.70;;;15.40;99.90;;;;;;5106600;27;20214;-67
2021/08/04 01:52:46;;;;;;;11.27;3.03;;;15.40;99.90;;;;;;5112681;27;20250;-67
2021/08/04 01:55:33;;;;;;;5.03;3.00;;;15.40;99.90;;;;;;5127974;27;20238;-67
2021/08/04 01:58:21;;;;;;;4.00;3.00;;;15.30;99.90;;;;;;5123286;27;20220;-66
2021/08/04 02:01:10;;;;;;;9.73;2.90;;;15.30;99.90;;;;;;5116068;27;20208;-66
2021/08/04 02:03:57;;;;;;;6.60;3.53;;;15.30;99.90;;;;;;5127354;27;20203;-67
2021/08/04 02:06:47;;;;;;;4.63;2.83;;;15.20;99.90;;;;;;5121258;27;20651;-67
2021/08/04 02:09:39;;;;;;;3.97;2.93;;;15.10;99.90;;;;;;5129181;27;20219;-67
2021/08/04 02:12:26;;;;;;;8.03;3.20;;;15.00;99.90;;;;;;5122347;27;20570;-67
2021/08/04 02:15:14;;;;;;;6.80;3.30;;;15.00;99.90;;;;;;5126851;27;20203;-66
2021/08/04 02:18:06;;;;;;;5.07;2.80;;;15.00;99.90;;;;;;5106410;27;20278;-67
2021/08/04 02:20:54;;;;;;;8.47;3.07;;;15.00;99.90;;;;;;5121538;27;20211;-66
2021/08/04 02:23:41;;;;;;;8.40;3.10;;;14.90;99.90;;;;;;5119054;27;20201;-67
2021/08/04 02:26:29;;;;;;;7.40;3.20;;;14.90;99.90;;;;;;5128089;27;20216;-67
2021/08/04 02:29:19;;;;;;;5.67;3.67;;;14.90;99.90;;;;;;5111955;27;20227;-66
2021/08/04 02:32:07;;;;;;;5.30;3.33;;;14.90;99.90;;;;;;5129849;27;20197;-67
2021/08/04 02:34:56;;;;;;;5.63;3.30;;;14.90;99.90;;;;;;5110541;27;20272;-67
2021/08/04 02:37:45;;;;;;;6.87;3.20;;;14.90;99.90;;;;;;5128444;27;20318;-67
2021/08/04 02:40:32;;;;;;;8.40;3.43;;;14.90;99.90;;;;;;5105922;27;20710;-67
2021/08/04 02:43:20;;;;;;;6.77;3.03;;;14.90;99.90;;;;;;5120038;27;20208;-67
2021/08/04 02:46:08;;;;;;;4.60;3.33;;;14.90;99.90;;;;;;5111882;27;20224;-67
2021/08/04 02:48:55;;;;;;;4.57;2.97;;;14.90;99.90;;;;;;5123378;27;20221;-67
2021/08/04 02:51:44;;;;;;;4.00;2.87;;;14.90;99.90;;;;;;5120887;27;20337;-67
2021/08/04 02:54:32;;;;;;;3.73;3.07;;;14.90;99.90;;;;;;5118995;27;20569;-67
2021/08/04 02:57:20;;;;;;;7.13;3.40;;;14.90;99.90;;;;;;5117620;27;20249;-67
2021/08/04 03:00:08;;;;;;;6.27;3.13;;;14.80;99.90;;;;;;5119867;27;20202;-67
2021/08/04 03:02:55;;;;;;;7.70;3.20;;;14.80;99.90;;;;;;5121467;27;20286;-67
2021/08/04 03:05:43;;;;;;;7.50;3.50;;;14.80;99.90;;;;;;5117829;27;20198;-66
2021/08/04 03:08:32;;;;;;;8.10;3.50;;;14.70;99.90;;;;;;5126110;27;20211;-66
2021/08/04 03:11:19;;;;;;;5.97;3.57;;;14.80;99.90;;;;;;5115142;27;20206;-66
2021/08/04 03:14:07;;;;;;;5.13;3.30;;;14.80;99.90;;;;;;5104420;27;20191;-66
2021/08/04 03:16:55;;;;;;;7.63;3.40;;;14.80;99.90;;;;;;5123139;27;20194;-66
2021/08/04 03:19:42;;;;;;;5.10;3.17;;;14.80;99.90;;;;;;5126245;27;20199;-66
2021/08/04 03:22:30;;;;;;;4.60;3.20;;;14.80;99.90;;;;;;5113831;28;20210;-66
2021/08/04 03:25:19;;;;;;;8.80;3.40;;;14.80;99.90;;;;;;5105577;28;20272;-66
2021/08/04 03:28:07;;;;;;;7.47;3.30;;;14.80;99.90;;;;;;5127607;28;20568;-66
2021/08/04 03:30:54;;;;;;;4.77;3.20;;;14.80;99.90;;;;;;5104746;28;20287;-66
2021/08/04 03:33:42;;;;;;;9.47;4.47;;;14.80;99.90;;;;;;5125053;28;20553;-66
2021/08/04 03:36:30;;;;;;;5.40;3.10;;;14.80;99.90;;;;;;5119469;28;20206;-66
2021/08/04 03:39:17;;;;;;;7.50;3.50;;;14.70;99.90;;;;;;5106888;28;20244;-66
2021/08/04 03:42:06;;;;;;;9.87;3.53;;;14.70;99.90;;;;;;5090516;28;20709;-66
2021/08/04 03:45:43;;;;;;;6.70;3.20;;;14.60;99.90;;;;;;5089390;28;20199;-66
2021/08/04 03:48:30;;;;;;;11.63;3.80;;;14.70;99.90;;;;;;5108221;28;20225;-66
2021/08/04 03:51:18;;;;;;;8.90;3.80;;;14.70;99.90;;;;;;5120098;28;20202;-66
2021/08/04 03:54:06;;;;;;;7.97;3.73;;;14.70;99.90;;;;;;5118542;28;20217;-66
2021/08/04 03:56:53;;;;;;;8.70;4.30;;;14.70;99.90;;;;;;5120537;28;20226;-66
2021/08/04 03:59:42;;;;;;;8.40;4.13;;;14.70;99.90;;;;;;5120657;28;20195;-66
2021/08/04 04:02:30;;;;;;;7.43;3.67;;;14.80;99.90;;;;;;5118192;28;20256;-66
2021/08/04 04:05:17;;;;;;;8.60;3.77;;;14.90;99.90;;;;;;5115732;28;20729;-66
2021/08/04 04:08:05;;;;;;;7.10;3.70;;;14.90;99.90;;;;;;5112444;27;20213;-66
2021/08/04 04:10:53;;;;;;;8.17;3.97;;;14.90;99.90;;;;;;5124214;27;20203;-66
2021/08/04 04:13:41;;;;;;;10.27;4.43;;;14.90;99.90;;;;;;5128538;27;20646;-66
2021/08/04 04:16:30;;;;;;;5.63;3.77;;;14.90;99.90;;;;;;5115431;27;20195;-66
2021/08/04 04:19:17;;;;;;;5.80;3.57;;;14.90;99.90;;;;;;5106062;28;20630;-66
2021/08/04 04:22:05;;;;;;;8.43;3.63;;;15.00;99.90;;;;;;5127165;27;20570;-66
2021/08/04 04:24:53;;;;;;;11.57;4.17;;;15.10;99.90;;;;;;5121553;27;20230;-66
2021/08/04 04:27:40;;;;;;;5.97;3.73;;;15.10;99.90;;;;;;5120661;27;20199;-66
2021/08/04 04:30:31;;;;;;;12.07;3.60;;;15.10;99.90;;;;;;5128715;27;20186;-66
2021/08/04 04:33:20;;;;;;;8.23;4.00;;;15.10;99.90;;;;;;5124807;27;20216;-66
2021/08/04 04:36:07;;;;;;;5.80;3.27;;;15.20;99.90;;;;;;5113210;27;20257;-66
2021/08/04 04:38:55;;;;;;;13.20;4.50;;;15.20;99.90;;;;;;5103527;27;20200;-66
2021/08/04 04:41:43;;;;;;;8.33;4.40;;;15.30;99.90;;;;;;5127565;27;20301;-66
2021/08/04 04:44:30;;;;;;;9.97;4.70;;;15.30;99.90;;;;;;5118363;27;20268;-66
2021/08/04 04:47:18;;;;;;;6.93;4.17;;;15.50;99.90;;;;;;5131916;27;20225;-66
2021/08/04 04:50:08;;;;;;;13.70;4.13;;;15.50;99.90;;;;;;5119493;27;20244;-66
2021/08/04 04:52:55;;;;;;;5.03;3.80;;;15.60;99.90;;;;;;5123396;27;20203;-66
2021/08/04 04:55:43;;;;;;;7.47;3.97;;;15.60;99.90;;;;;;5118309;27;20200;-66
2021/08/04 04:58:31;;;;;;;9.10;4.43;;;15.70;99.90;;;;;;5120952;27;20195;-66
2021/08/04 05:01:18;;;;;;;6.80;4.80;;;15.70;99.90;;;;;;5112218;27;20208;-66
2021/08/04 05:04:07;;;;;;;11.33;5.43;;;15.70;99.90;;;;;;5118562;27;20684;-66
2021/08/04 05:06:56;;;;;;;15.30;7.87;;;15.90;99.90;;;;;;5123362;27;20674;-66
2021/08/04 05:09:44;;;;;;;18.80;8.20;;;16.00;99.90;;;;;;5130934;27;20704;-66
2021/08/04 05:12:31;;;;;;;14.17;7.90;;;16.10;99.90;;;;;;5116420;27;20206;-66
2021/08/04 05:15:19;;;;;;;11.23;5.00;;;16.40;99.90;;;;;;5109354;27;20226;-66
2021/08/04 05:18:06;;;;;;;16.37;8.23;;;16.40;99.90;;;;;;5111952;27;20686;-66
2021/08/04 05:20:54;;;;;;;18.90;8.17;;;16.50;99.90;;;;;;5119882;27;20235;-66
2021/08/04 05:23:43;;;;;;;18.10;9.47;;;16.60;99.90;;;;;;5120928;27;20213;-66
2021/08/04 05:26:31;;;;;;;17.73;8.53;;;16.60;99.90;;;;;;5128507;27;20733;-66
2021/08/04 05:29:18;;;;;;;15.67;8.13;;;16.70;99.90;;;;;;5108519;27;20218;-66
2021/08/04 05:32:07;;;;;;;17.73;8.10;;;16.70;99.90;;;;;;5110140;27;20194;-66
2021/08/04 05:34:54;;;;;;;16.93;8.23;;;16.80;99.90;;;;;;5097857;27;20650;-66
2021/08/04 05:37:42;;;;;;;11.87;6.57;;;16.90;99.90;;;;;;5130788;27;20201;-66
2021/08/04 05:40:31;;;;;;;14.43;6.77;;;17.00;99.90;;;;;;5127617;27;20556;-66
2021/08/04 05:43:18;;;;;;;10.17;6.00;;;17.20;99.90;;;;;;5110985;27;20711;-66
2021/08/04 05:46:06;;;;;;;12.70;6.47;;;17.30;99.90;;;;;;5123422;27;20705;-66
2021/08/04 05:48:53;;;;;;;8.63;5.53;;;17.40;99.90;;;;;;5124650;27;20216;-66
2021/08/04 05:51:41;;;;;;;11.37;6.37;;;17.50;99.90;;;;;;5117601;27;20205;-66
2021/08/04 05:54:29;;;;;;;11.03;5.60;;;17.60;99.90;;;;;;5126578;27;20577;-66
2021/08/04 05:57:17;;;;;;;12.23;6.13;;;17.70;99.90;;;;;;5113313;27;20298;-66
2021/08/04 06:00:06;;;;;;;11.10;6.53;;;17.70;99.90;;;;;;5123041;27;20206;-67
2021/08/04 06:02:54;;;;;;;12.53;6.47;;;17.60;99.90;;;;;;5121555;27;20193;-67
2021/08/04 06:05:42;;;;;;;11.27;6.30;;;17.70;99.90;;;;;;5122730;27;20422;-66
2021/08/04 06:08:30;;;;;;;10.37;6.00;;;17.70;99.90;;;;;;5121703;27;20197;-66
2021/08/04 06:11:17;;;;;;;10.43;6.27;;;17.80;99.90;;;;;;5114149;27;20288;-67
2021/08/04 06:14:06;;;;;;;11.67;5.83;;;17.90;99.90;;;;;;5117594;27;20202;-67
2021/08/04 06:16:54;;;;;;;9.60;5.70;;;17.90;99.90;;;;;;5120457;27;20204;-66
2021/08/04 06:19:42;;;;;;;12.60;6.37;;;17.90;99.90;;;;;;5123238;27;20215;-67
2021/08/04 06:22:30;;;;;;;9.57;5.90;;;17.80;99.90;;;;;;5125815;27;20217;-67
2021/08/04 06:25:17;;;;;;;13.83;6.10;;;17.90;99.90;;;;;;5129631;27;20379;-67
2021/08/04 06:28:05;;;;;;;8.80;6.27;;;17.90;99.90;;;;;;5106575;28;20193;-67
2021/08/04 06:30:54;;;;;;;13.93;6.60;;;18.00;99.90;;;;;;5106705;28;20213;-67
2021/08/04 06:33:42;;;;;;;11.87;6.40;;;18.00;99.90;;;;;;5090287;28;20287;-66
2021/08/04 06:36:29;;;;;;;9.53;5.40;;;18.00;99.90;;;;;;5091013;28;20212;-66
2021/08/04 06:39:17;;;;;;;9.17;5.40;;;18.20;99.90;;;;;;5090633;28;20590;-67
2021/08/04 06:42:05;;;;;;;8.87;5.37;;;18.00;99.90;;;;;;5090705;28;20665;-67
2021/08/04 06:44:52;;;;;;;10.90;5.60;;;18.10;99.90;;;;;;5096983;28;20556;-66
2021/08/04 06:47:41;;;;;;;8.20;4.80;;;18.10;99.90;;;;;;5111560;28;20195;-67
2021/08/04 06:50:29;;;;;;;12.23;5.10;;;18.20;99.90;;;;;;5110445;28;20215;-66
2021/08/04 06:53:17;;;;;;;11.80;5.20;;;18.20;99.90;;;;;;5111506;28;20204;-66
2021/08/04 06:56:05;;;;;;;14.00;4.20;;;18.30;99.90;;;;;;5111302;28;20212;-67
2021/08/04 06:58:53;;;;;;;10.30;4.70;;;18.50;99.90;;;;;;5110082;28;20206;-66
2021/08/04 07:01:40;;;;;;;7.83;4.90;;;18.50;99.90;;;;;;5111042;28;20215;-66
2021/08/04 07:04:30;;;;;;;8.03;4.40;;;18.50;99.90;;;;;;5111248;28;20201;-66
2021/08/04 07:07:17;;;;;;;5.87;4.30;;;18.70;99.90;;;;;;5110577;28;20208;-66
2021/08/04 07:10:06;;;;;;;10.43;4.07;;;18.80;99.90;;;;;;5110405;28;20222;-67
2021/08/04 07:12:53;;;;;;;5.80;3.60;;;18.90;99.90;;;;;;5121863;27;20201;-66
2021/08/04 07:15:41;;;;;;;6.67;3.23;;;19.00;99.90;;;;;;5122513;27;20240;-66
2021/08/04 07:18:29;;;;;;;6.40;3.23;;;19.10;99.90;;;;;;5122750;27;20194;-66
2021/08/04 07:21:18;;;;;;;10.97;3.07;;;19.30;99.90;;;;;;5111803;28;20198;-66
2021/08/04 07:24:07;;;;;;;4.40;2.53;;;19.40;99.90;;;;;;5119473;27;20233;-66
2021/08/04 07:26:54;;;;;;;4.77;2.80;;;19.40;99.90;;;;;;5116836;27;20208;-67
2021/08/04 07:29:42;;;;;;;3.43;2.60;;;19.70;99.90;;;;;;5123398;28;20209;-66
2021/08/04 07:32:30;;;;;;;4.97;2.50;;;20.00;99.90;;;;;;5112800;28;20195;-66
2021/08/04 07:35:18;;;;;;;6.13;2.97;;;20.20;99.90;;;;;;5114478;28;20213;-66
2021/08/04 07:38:07;;;;;;;5.73;2.90;;;20.30;99.90;;;;;;5117739;28;20269;-66
2021/08/04 07:40:54;;;;;;;6.00;2.90;;;20.50;99.90;;;;;;5114406;27;20298;-66
2021/08/04 07:43:42;;;;;;;5.43;2.40;;;20.80;99.90;;;;;;5128376;27;20522;-66
2021/08/04 07:46:30;;;;;;;5.33;2.13;;;20.90;99.90;;;;;;5123708;27;20224;-66
2021/08/04 07:49:18;;;;;;;3.67;2.20;;;21.00;99.90;;;;;;5130508;27;20211;-66
2021/08/04 07:52:06;;;;;;;6.87;2.70;;;21.30;99.90;;;;;;5112496;27;20221;-66
2021/08/04 07:54:55;;;;;;;6.50;2.50;;;21.50;99.90;;;;;;5121029;27;20200;-67
2021/08/04 07:57:42;;;;;;;3.63;2.17;;;21.60;99.90;;;;;;5115592;27;20213;-66
2021/08/04 08:00:30;;;;;;;6.07;2.60;;;21.60;99.90;;;;;;5107594;27;20195;-66
2021/08/04 08:03:18;;;;;;;5.77;2.87;;;21.90;99.90;;;;;;5131084;27;20217;-66
2021/08/04 08:06:05;;;;;;;9.80;2.80;;;22.30;99.90;;;;;;5130020;27;20668;-66
2021/08/04 08:08:53;;;;;;;4.20;2.20;;;22.70;99.90;;;;;;5126533;27;20203;-66
2021/08/04 08:11:42;;;;;;;4.30;2.80;;;22.90;99.90;;;;;;5116831;27;20199;-66
2021/08/04 08:14:31;;;;;;;7.93;2.77;;;23.00;99.90;;;;;;5113356;27;20230;-66
2021/08/04 08:17:19;;;;;;;4.33;2.50;;;23.50;99.90;;;;;;5124279;27;20207;-67
2021/08/04 08:20:07;;;;;;;3.67;2.30;;;23.80;99.90;;;;;;5114489;27;20191;-66
2021/08/04 08:22:55;;;;;;;3.00;1.80;;;23.60;99.90;;;;;;5115983;27;20868;-66
2021/08/04 08:25:42;;;;;;;3.00;2.03;;;23.40;99.90;;;;;;5133039;27;20222;-66
2021/08/04 08:28:31;;;;;;;5.57;2.03;;;23.30;99.90;;;;;;5121509;27;20201;-66
2021/08/04 08:31:19;;;;;;;3.33;1.70;;;23.40;99.90;;;;;;5118220;27;20302;-66
2021/08/04 08:34:07;;;;;;;3.90;2.30;;;23.80;99.90;;;;;;5122716;27;20198;-66
2021/08/04 08:36:55;;;;;;;4.03;2.27;;;24.00;99.90;;;;;;5127475;27;20279;-66
2021/08/04 08:39:42;;;;;;;3.75;2.00;;;24.10;99.90;;;;;;5132627;27;20198;-66
2021/08/04 08:42:30;;;;;;;2.90;1.70;;;24.20;99.90;;;;;;5115246;27;20633;-66
2021/08/04 08:45:19;;;;;;;5.77;2.20;;;24.00;99.90;;;;;;5125842;27;20206;-66
2021/08/04 08:48:07;;;;;;;2.90;2.03;;;23.90;99.90;;;;;;5113609;27;20274;-66
2021/08/04 08:50:54;;;;;;;2.97;1.93;;;23.80;99.90;;;;;;5125271;27;20217;-66
2021/08/04 08:53:42;;;;;;;3.25;1.73;;;24.00;99.90;;;;;;5130631;27;20657;-66
2021/08/04 08:56:30;;;;;;;6.10;1.73;;;24.00;99.90;;;;;;5125167;27;20282;-66
2021/08/04 08:59:18;;;;;;;3.38;2.20;;;23.90;99.90;;;;;;5119650;27;20207;-66
2021/08/04 09:02:07;;;;;;;2.60;2.00;;;23.60;99.90;;;;;;5121551;27;20290;-66
2021/08/04 09:04:59;;;;;;;2.87;1.93;;;23.70;99.90;;;;;;5118651;27;20201;-67
2021/08/04 09:07:47;;;;;;;2.80;1.97;;;23.60;99.90;;;;;;5122712;27;20208;-67
2021/08/04 09:10:35;;;;;;;4.63;2.00;;;23.30;99.90;;;;;;5122483;27;20218;-67
2021/08/04 09:13:31;;;;;;;2.97;2.00;;;23.50;99.90;;;;;;5116775;27;20289;-67
2021/08/04 09:16:19;;;;;;;3.73;1.70;;;23.60;99.90;;;;;;5132755;27;20199;-67
2021/08/04 09:19:20;;;;;;;2.80;1.93;;;23.50;99.90;;;;;;5125702;27;20338;-67
2021/08/04 09:22:13;;;;;;;4.20;1.93;;;23.40;99.90;;;;;;5112297;27;20204;-66
2021/08/04 09:25:07;;;;;;;3.97;2.07;;;23.60;99.90;;;;;;5107361;27;20232;-66
2021/08/04 09:27:55;;;;;;;4.40;1.90;;;23.90;99.90;;;;;;5115864;27;20277;-66
2021/08/04 09:30:44;;;;;;;4.23;1.80;;;24.10;99.90;;;;;;5116124;27;20211;-66
2021/08/04 09:33:36;;;;;;;2.00;1.53;;;23.90;99.90;;;;;;5122961;27;20222;-67
2021/08/04 09:36:28;;;;;;;2.43;2.00;;;23.50;99.90;;;;;;5115609;27;20198;-67
2021/08/04 09:39:16;;;;;;;6.73;3.03;;;23.30;99.90;;;;;;5117862;27;20207;-66
2021/08/04 09:42:04;;;;;;;3.30;2.23;;;22.80;99.90;;;;;;5113839;27;20282;-66
2021/08/04 09:44:55;;;;;;;6.70;3.03;;;22.60;99.90;;;;;;5128002;27;20282;-66
2021/08/04 09:48:03;;;;;;;3.80;2.47;;;22.20;99.90;;;;;;5124943;27;20190;-66
2021/08/04 09:50:53;;;;;;;4.73;2.60;;;21.90;99.90;;;;;;5118947;27;20214;-67
2021/08/04 09:53:46;;;;;;;4.73;2.60;;;21.90;99.90;;;;;;5119040;27;20195;-67
2021/08/04 09:56:34;;;;;;;6.23;2.80;;;22.00;99.90;;;;;;5114892;27;20222;-66
2021/08/04 09:59:22;;;;;;;7.77;3.00;;;21.90;99.90;;;;;;5130671;27;20528;-67
2021/08/04 10:02:28;;;;;;;4.33;2.93;;;21.90;99.90;;;;;;5120882;27;20203;-67
2021/08/04 10:05:22;;;;;;;3.40;2.60;;;22.00;99.90;;;;;;5128798;27;20199;-67
2021/08/04 10:08:10;;;;;;;5.63;2.30;;;22.30;99.90;;;;;;5129346;27;20199;-67
2021/08/04 10:10:59;;;;;;;3.00;2.27;;;22.40;99.90;;;;;;5107402;27;20565;-66
2021/08/04 10:13:47;;;;;;;7.27;2.50;;;22.50;99.90;;;;;;5122365;27;20198;-67
2021/08/04 10:16:35;;;;;;;4.00;2.20;;;22.80;99.90;;;;;;5114685;27;20199;-66
2021/08/04 10:19:23;;;;;;;4.70;2.50;;;22.70;99.90;;;;;;5114520;27;20328;-66
2021/08/04 10:22:11;;;;;;;3.53;2.10;;;22.70;99.90;;;;;;5125601;27;20318;-67
2021/08/04 10:24:59;;;;;;;11.07;2.33;;;22.40;99.90;;;;;;5114898;27;20245;-67
2021/08/04 10:27:48;;;;;;;3.70;2.00;;;22.30;99.90;;;;;;5124873;27;20199;-67
2021/08/04 10:30:36;;;;;;;3.37;1.90;;;22.20;99.90;;;;;;5120356;27;20226;-67
2021/08/04 10:33:23;;;;;;;2.33;1.70;;;22.30;99.90;;;;;;5117153;27;20560;-67
2021/08/04 10:36:12;;;;;;;2.50;1.70;;;22.30;99.90;;;;;;5114867;27;20203;-66
2021/08/04 10:39:01;;;;;;;5.13;1.70;;;22.50;99.90;;;;;;5109190;27;20209;-67
2021/08/04 10:42:00;;;;;;;2.40;1.63;;;22.60;99.90;;;;;;5122373;27;20385;-66
2021/08/04 10:44:49;;;;;;;2.17;1.60;;;22.70;99.90;;;;;;5118070;27;20246;-67
2021/08/04 10:47:37;;;;;;;4.63;1.70;;;22.90;99.90;;;;;;5121172;27;20748;-67
2021/08/04 10:50:24;;;;;;;1.80;1.57;;;23.10;99.90;;;;;;5119746;27;20564;-66
2021/08/04 10:53:12;;;;;;;1.87;1.40;;;23.50;99.90;;;;;;5117158;27;20202;-66
2021/08/04 10:56:00;;;;;;;1.80;1.33;;;24.20;99.90;;;;;;5115209;27;20203;-66
2021/08/04 10:59:02;;;;;;;2.37;1.57;;;24.30;99.90;;;;;;5121106;27;20216;-66
2021/08/04 11:01:53;;;;;;;1.80;1.40;;;24.50;99.90;;;;;;5122070;27;20272;-66
2021/08/04 11:04:53;;;;;;;1.67;1.30;;;24.60;99.90;;;;;;5119808;27;20202;-66
2021/08/04 11:07:57;;;;;;;3.40;1.43;;;24.60;99.90;;;;;;5112569;27;20214;-66
2021/08/04 11:10:45;;;;;;;2.25;1.02;;;24.30;99.90;;;;;;5114352;27;20264;-66
2021/08/04 11:13:53;;;;;;;2.85;1.52;;;24.50;99.90;;;;;;5129830;27;20737;-66
2021/08/04 11:16:41;;;;;;;9.35;1.55;;;25.10;99.90;;;;;;5115184;27;20194;-66
2021/08/04 11:19:34;;;;;;;3.35;1.20;;;25.10;99.90;;;;;;5116840;27;20203;-66
2021/08/04 11:22:22;;;;;;;1.48;1.27;;;25.10;99.90;;;;;;5108859;27;20200;-66
2021/08/04 11:25:11;;;;;;;1.90;1.38;;;25.10;99.90;;;;;;5119653;27;20234;-66
2021/08/04 11:28:05;;;;;;;2.22;1.58;;;25.00;99.90;;;;;;5124186;27;20692;-66
2021/08/04 11:30:55;;;;;;;2.17;1.40;;;25.90;99.90;;;;;;5102764;28;20227;-66
2021/08/04 11:33:42;;;;;;;3.05;1.67;;;26.70;99.90;;;;;;5114407;28;20198;-66
2021/08/04 11:36:31;;;;;;;3.20;1.70;;;26.50;99.90;;;;;;5114600;28;20199;-66
2021/08/04 11:39:19;;;;;;;3.28;1.73;;;26.40;99.90;;;;;;5124261;28;20199;-66
2021/08/04 11:42:07;;;;;;;5.35;1.70;;;26.60;99.90;;;;;;5118562;28;20187;-66
2021/08/04 11:44:54;;;;;;;4.05;1.42;;;25.90;99.90;;;;;;5119540;28;20226;-66
2021/08/04 11:47:42;;;;;;;3.75;2.05;;;25.40;99.90;;;;;;5105177;28;20607;-66
2021/08/04 11:50:29;;;;;;;3.33;1.70;;;25.30;99.90;;;;;;5121937;28;20230;-66
2021/08/04 11:53:18;;;;;;;3.05;1.73;;;25.00;99.90;;;;;;5123808;28;20281;-66
2021/08/04 11:56:06;;;;;;;2.47;1.58;;;24.90;99.90;;;;;;5111304;28;20198;-66
2021/08/04 11:58:57;;;;;;;3.88;1.40;;;24.60;99.90;;;;;;5118443;28;20286;-66
2021/08/04 12:02:00;;;;;;;6.45;1.85;;;24.80;99.90;;;;;;5110846;28;20198;-66
2021/08/04 12:04:48;;;;;;;1.85;1.30;;;25.00;99.90;;;;;;5122216;28;20203;-66
2021/08/04 12:07:37;;;;;;;5.78;1.70;;;25.50;99.90;;;;;;5119607;28;21055;-66
2021/08/04 12:10:27;;;;;;;2.42;1.73;;;26.10;99.90;;;;;;5117620;28;20569;-66
2021/08/04 12:13:14;;;;;;;5.20;1.80;;;26.00;99.90;;;;;;5120220;28;20202;-66
2021/08/04 12:16:02;;;;;;;3.72;1.90;;;26.00;99.90;;;;;;5113147;28;20274;-66
2021/08/04 12:18:49;;;;;;;3.03;1.60;;;25.70;99.90;;;;;;5120802;28;20210;-66
2021/08/04 12:21:37;;;;;;;2.35;1.45;;;26.00;99.90;;;;;;5112345;28;20646;-66
2021/08/04 12:24:26;;;;;;;12.90;4.93;;;25.80;99.90;;;;;;5112190;28;20619;-66
2021/08/04 12:27:15;;;;;;;2.60;1.52;;;25.80;99.90;;;;;;5122890;27;20631;-66
2021/08/04 12:30:29;;;;;;;4.03;1.35;;;26.10;99.90;;;;;;5122405;27;20195;-66
2021/08/04 12:33:19;;;;;;;3.47;1.73;;;26.40;99.90;;;;;;5020628;28;20690;-66
2021/08/04 12:36:09;;;;;;;4.93;1.73;;;26.50;99.90;;;;;;5013201;28;20201;-66
2021/08/04 12:38:57;;;;;;;2.25;1.67;;;26.00;99.90;;;;;;5013380;28;20577;-66
2021/08/04 12:41:45;;;;;;;2.72;1.80;;;26.00;99.90;;;;;;5007450;28;20206;-66
2021/08/04 12:44:34;;;;;;;4.13;1.60;;;26.40;99.90;;;;;;5025905;28;20197;-66
2021/08/04 12:47:21;;;;;;;2.40;1.60;;;26.50;99.90;;;;;;5005605;28;20357;-66
2021/08/04 12:50:10;;;;;;;2.80;1.95;;;26.40;99.90;;;;;;5023388;28;20273;-66
2021/08/04 12:52:58;;;;;;;4.43;1.73;;;25.90;99.90;;;;;;5018718;28;20574;-66
2021/08/04 12:55:58;;;;;;;2.03;1.52;;;25.50;99.90;;;;;;5011793;28;20203;-66
2021/08/04 12:58:56;;;;;;;3.05;1.80;;;25.20;99.90;;;;;;5005290;28;20710;-66
2021/08/04 13:01:46;;;;;;;3.42;1.90;;;24.30;99.90;;;;;;5020687;28;20205;-66
2021/08/04 13:04:34;;;;;;;3.05;2.30;;;24.10;99.90;;;;;;5024129;28;20202;-66
2021/08/04 13:07:21;;;;;;;4.15;2.20;;;24.10;99.90;;;;;;5020170;28;20201;-66
2021/08/04 13:10:09;;;;;;;5.88;2.60;;;23.90;99.90;;;;;;5097573;27;20195;-66
2021/08/04 13:12:57;;;;;;;5.47;2.80;;;24.00;99.90;;;;;;5113478;27;20299;-66
2021/08/04 13:15:47;;;;;;;3.27;2.67;;;24.10;99.90;;;;;;5124148;27;20195;-66
2021/08/04 13:18:39;;;;;;;5.43;3.00;;;24.10;99.90;;;;;;5127835;27;20696;-66
2021/08/04 13:21:26;;;;;;;5.75;2.90;;;24.30;99.90;;;;;;5113132;27;20207;-66
2021/08/04 13:24:28;;;;;;;6.25;3.05;;;24.50;99.90;;;;;;5125259;27;20225;-66
2021/08/04 13:27:28;;;;;;;6.65;2.90;;;24.40;99.90;;;;;;5120351;27;20292;-66
2021/08/04 13:30:16;;;;;;;7.88;3.00;;;24.60;99.90;;;;;;5107903;27;20214;-66
2021/08/04 13:33:04;;;;;;;5.60;3.23;;;24.50;99.90;;;;;;5109104;28;20223;-66
2021/08/04 13:35:54;;;;;;;43.27;12.17;;;24.50;99.90;;;;;;5121248;27;20804;-66
2021/08/04 13:38:42;;;;;;;10.65;4.82;;;24.50;99.90;;;;;;5112125;27;20194;-66
2021/08/04 13:41:29;;;;;;;7.47;3.50;;;24.50;99.90;;;;;;5117701;27;20187;-66
2021/08/04 13:44:17;;;;;;;6.47;3.50;;;24.20;99.90;;;;;;5124093;27;20653;-66
2021/08/04 13:47:05;;;;;;;4.60;2.87;;;23.90;99.90;;;;;;5131808;27;20700;-66
2021/08/04 13:49:56;;;;;;;4.60;2.83;;;23.90;99.90;;;;;;5128872;27;20198;-66
2021/08/04 13:52:45;;;;;;;4.60;3.20;;;23.90;99.90;;;;;;5116537;27;20237;-66
2021/08/04 13:55:33;;;;;;;5.13;3.20;;;23.90;99.90;;;;;;5122332;27;20209;-66
2021/08/04 13:58:21;;;;;;;6.70;3.30;;;23.90;99.90;;;;;;5108285;27;20211;-66
2021/08/04 14:01:09;;;;;;;5.77;3.30;;;23.80;99.90;;;;;;5122325;27;20202;-66
2021/08/04 14:03:56;;;;;;;6.97;3.33;;;23.50;99.90;;;;;;5121986;27;20195;-66
2021/08/04 14:06:44;;;;;;;6.73;3.60;;;23.40;99.90;;;;;;5123470;27;20567;-66
2021/08/04 14:09:33;;;;;;;5.20;3.07;;;23.60;99.90;;;;;;5116992;27;20195;-66
2021/08/04 14:12:20;;;;;;;5.43;3.40;;;24.00;99.90;;;;;;5123737;27;20219;-66
2021/08/04 14:15:09;;;;;;;6.10;3.30;;;24.30;99.90;;;;;;5108105;27;20247;-66
2021/08/04 14:17:57;;;;;;;7.60;3.37;;;24.40;99.90;;;;;;5130331;27;20205;-66
2021/08/04 14:20:44;;;;;;;5.13;2.90;;;25.20;99.90;;;;;;5123404;27;20267;-66
2021/08/04 14:23:32;;;;;;;4.20;2.47;;;25.30;99.90;;;;;;5113994;27;20298;-66
2021/08/04 14:26:21;;;;;;;3.58;2.42;;;25.00;99.90;;;;;;5102483;27;20204;-66
2021/08/04 14:29:08;;;;;;;3.78;2.58;;;25.10;99.90;;;;;;5128589;27;20690;-66
2021/08/04 14:31:56;;;;;;;4.38;2.78;;;25.00;99.90;;;;;;5127587;27;20210;-66
2021/08/04 14:34:43;;;;;;;4.38;2.50;;;25.10;99.90;;;;;;5105604;27;20199;-66
2021/08/04 14:37:31;;;;;;;5.38;2.47;;;25.20;99.90;;;;;;5120391;27;20209;-66
2021/08/04 14:40:19;;;;;;;6.18;2.28;;;25.30;99.90;;;;;;5121101;27;20199;-66
2021/08/04 14:43:08;;;;;;;3.30;1.98;;;25.20;99.90;;;;;;5121422;27;20191;-66